createdAt,value
2019-05-19T00:00:16.167Z,79.90
2019-05-19T00:01:16.156Z,80.30
2019-05-19T00:02:16.154Z,80.19
2019-05-19T00:03:16.164Z,80.10
2019-05-19T00:04:16.137Z,79.99
2019-05-19T00:05:16.129Z,80.10
2019-05-19T00:06:16.114Z,80.10
2019-05-19T00:07:16.265Z,80.10
2019-05-19T00:08:16.102Z,79.99
2019-05-19T00:09:16.655Z,80.19
2019-05-19T00:10:16.095Z,79.99
2019-05-19T00:11:16.061Z,79.99
2019-05-19T00:12:16.064Z,80.30
2019-05-19T00:13:16.040Z,80.30
2019-05-19T00:14:16.010Z,80.10
2019-05-19T00:15:16.021Z,79.99
2019-05-19T00:16:16.000Z,79.99
2019-05-19T00:17:15.998Z,79.79
2019-05-19T00:18:15.979Z,79.79
2019-05-19T00:19:26.247Z,79.90
2019-05-19T00:20:16.958Z,79.79
2019-05-19T00:21:15.939Z,79.99
2019-05-19T00:22:15.927Z,80.10
2019-05-19T00:23:15.920Z,80.30
2019-05-19T00:24:15.916Z,80.60
2019-05-19T00:25:15.907Z,80.60
2019-05-19T00:26:15.887Z,80.40
2019-05-19T00:27:15.907Z,80.91
2019-05-19T00:28:15.904Z,80.91
2019-05-19T00:29:15.860Z,80.30
2019-05-19T00:30:15.867Z,80.40
2019-05-19T00:31:15.856Z,80.50
2019-05-19T00:32:15.826Z,80.50
2019-05-19T00:33:15.834Z,80.40
2019-05-19T00:34:15.814Z,80.60
2019-05-19T00:35:15.803Z,80.60
2019-05-19T00:36:15.798Z,80.40
2019-05-19T00:37:15.794Z,80.19
2019-05-19T00:38:15.762Z,80.30
2019-05-19T00:39:15.792Z,80.40
2019-05-19T00:40:15.760Z,80.30
2019-05-19T00:41:15.725Z,80.19
2019-05-19T00:42:15.710Z,80.19
2019-05-19T00:43:15.710Z,80.19
2019-05-19T00:44:15.709Z,80.30
2019-05-19T00:45:15.708Z,80.60
2019-05-19T00:46:15.690Z,80.91
2019-05-19T00:47:15.678Z,81.01
2019-05-19T00:48:15.648Z,81.01
2019-05-19T00:49:15.657Z,80.71
2019-05-19T00:50:15.669Z,81.01
2019-05-19T00:51:15.617Z,81.05
2019-05-19T00:52:15.607Z,81.25
2019-05-19T00:53:15.601Z,81.25
2019-05-19T00:54:15.606Z,81.25
2019-05-19T00:55:15.595Z,81.35
2019-05-19T00:56:15.575Z,81.56
2019-05-19T00:57:15.555Z,81.56
2019-05-19T00:58:15.544Z,81.66
2019-05-19T00:59:15.568Z,81.86
2019-05-19T01:00:15.534Z,81.76
2019-05-19T01:01:15.514Z,81.76
2019-05-19T01:02:15.502Z,81.76
2019-05-19T01:03:15.492Z,81.86
2019-05-19T01:04:15.514Z,82.06
2019-05-19T01:05:15.492Z,82.26
2019-05-19T01:06:15.482Z,82.26
2019-05-19T01:07:15.805Z,82.51
2019-05-19T01:08:15.475Z,82.51
2019-05-19T01:09:15.431Z,82.71
2019-05-19T01:10:15.410Z,82.81
2019-05-19T01:11:15.421Z,83.01
2019-05-19T01:12:15.408Z,83.12
2019-05-19T01:13:15.406Z,83.22
2019-05-19T01:14:15.496Z,83.32
2019-05-19T01:15:15.359Z,83.32
2019-05-19T01:16:15.348Z,83.22
2019-05-19T01:17:15.360Z,83.32
2019-05-19T01:18:15.327Z,83.32
2019-05-19T01:19:15.332Z,83.32
2019-05-19T01:20:15.326Z,83.53
2019-05-19T01:21:15.296Z,83.73
2019-05-19T01:22:15.315Z,84.03
2019-05-19T01:23:15.285Z,84.03
2019-05-19T01:24:15.266Z,84.23
2019-05-19T01:25:15.256Z,84.34
2019-05-19T01:26:15.285Z,84.34
2019-05-19T01:27:15.230Z,84.23
2019-05-19T01:28:15.218Z,84.23
2019-05-19T01:29:15.221Z,84.13
2019-05-19T01:30:15.223Z,84.03
2019-05-19T01:31:15.193Z,84.03
2019-05-19T01:32:15.192Z,84.23
2019-05-19T01:33:15.189Z,84.34
2019-05-19T01:34:15.162Z,84.34
2019-05-19T01:35:15.163Z,84.34
2019-05-19T01:36:15.174Z,84.34
2019-05-19T01:37:15.140Z,84.03
2019-05-19T01:38:15.117Z,84.23
2019-05-19T01:39:15.099Z,84.13
2019-05-19T01:40:15.108Z,84.13
2019-05-19T01:41:15.108Z,84.23
2019-05-19T01:42:15.069Z,84.54
2019-05-19T01:43:15.066Z,84.74
2019-05-19T01:44:15.058Z,84.84
2019-05-19T01:45:15.030Z,84.84
2019-05-19T01:46:15.037Z,84.74
2019-05-19T01:47:15.028Z,84.64
2019-05-19T01:48:15.017Z,84.54
2019-05-19T01:49:15.006Z,84.54
2019-05-19T01:50:18.029Z,84.23
2019-05-19T01:52:23.889Z,84.23
2019-05-19T01:53:23.870Z,84.13
2019-05-19T01:54:23.858Z,84.03
2019-05-19T01:55:23.849Z,84.03
2019-05-19T01:56:23.838Z,83.93
2019-05-19T01:57:23.839Z,84.03
2019-05-19T01:58:23.798Z,84.13
2019-05-19T01:59:23.793Z,84.13
2019-05-19T02:00:23.830Z,84.23
2019-05-19T02:01:23.769Z,84.54
2019-05-19T02:02:23.756Z,84.34
2019-05-19T02:03:23.782Z,84.13
2019-05-19T02:04:23.746Z,84.23
2019-05-19T02:05:23.726Z,84.34
2019-05-19T02:06:23.719Z,84.34
2019-05-19T02:07:23.744Z,84.23
2019-05-19T02:08:23.697Z,84.34
2019-05-19T02:09:23.684Z,84.34
2019-05-19T02:10:23.761Z,84.40
2019-05-19T02:11:24.394Z,84.40
2019-05-19T02:12:23.653Z,84.40
2019-05-19T02:13:23.642Z,84.54
2019-05-19T02:14:23.651Z,84.50
2019-05-19T02:15:23.643Z,83.99
2019-05-19T02:16:23.631Z,83.93
2019-05-19T02:17:23.611Z,84.03
2019-05-19T02:18:23.590Z,84.03
2019-05-19T02:19:23.608Z,84.13
2019-05-19T02:20:32.640Z,84.23
2019-05-19T02:21:24.559Z,84.23
2019-05-19T02:22:23.570Z,84.44
2019-05-19T02:23:23.568Z,84.44
2019-05-19T02:24:23.518Z,84.44
2019-05-19T02:25:23.508Z,84.95
2019-05-19T02:26:23.498Z,85.05
2019-05-19T02:27:23.495Z,85.25
2019-05-19T02:28:23.575Z,85.25
2019-05-19T02:29:23.470Z,84.74
2019-05-19T02:30:23.459Z,84.74
2019-05-19T02:31:23.448Z,84.84
2019-05-19T02:32:23.445Z,85.05
2019-05-19T02:33:23.456Z,85.19
2019-05-19T02:34:23.420Z,85.19
2019-05-19T02:35:23.437Z,85.29
2019-05-19T02:36:23.395Z,85.39
2019-05-19T02:37:23.413Z,85.39
2019-05-19T02:38:23.404Z,85.49
2019-05-19T02:39:23.364Z,85.29
2019-05-19T02:40:23.370Z,85.39
2019-05-19T02:41:23.354Z,85.49
2019-05-19T02:42:23.345Z,85.60
2019-05-19T02:43:23.341Z,85.60
2019-05-19T02:44:23.315Z,85.70
2019-05-19T02:45:23.324Z,85.90
2019-05-19T02:46:23.311Z,85.90
2019-05-19T02:47:23.270Z,86.00
2019-05-19T02:48:23.287Z,86.04
2019-05-19T02:49:23.354Z,86.04
2019-05-19T02:50:23.290Z,86.15
2019-05-19T02:51:23.232Z,86.04
2019-05-19T02:52:23.239Z,85.94
2019-05-19T02:53:23.221Z,85.94
2019-05-19T02:54:23.208Z,86.04
2019-05-19T02:55:23.197Z,86.15
2019-05-19T02:56:23.185Z,86.35
2019-05-19T02:57:23.185Z,86.35
2019-05-19T02:58:23.185Z,86.04
2019-05-19T02:59:23.146Z,85.94
2019-05-19T03:00:23.156Z,86.04
2019-05-19T03:01:23.150Z,86.15
2019-05-19T03:02:23.153Z,86.39
2019-05-19T03:03:23.105Z,86.49
2019-05-19T03:04:23.095Z,86.59
2019-05-19T03:05:23.113Z,87.00
2019-05-19T03:06:23.086Z,87.10
2019-05-19T03:07:23.063Z,87.00
2019-05-19T03:08:23.043Z,86.90
2019-05-19T03:09:23.033Z,86.80
2019-05-19T03:10:23.042Z,86.90
2019-05-19T03:11:23.022Z,86.90
2019-05-19T03:12:23.024Z,87.00
2019-05-19T03:13:23.093Z,87.24
2019-05-19T03:14:23.017Z,87.41
2019-05-19T03:15:22.970Z,87.30
2019-05-19T03:16:22.984Z,87.51
2019-05-19T03:17:23.050Z,87.71
2019-05-19T03:18:22.970Z,87.61
2019-05-19T03:19:22.959Z,87.51
2019-05-19T03:20:22.950Z,87.20
2019-05-19T03:21:22.919Z,87.20
2019-05-19T03:22:22.912Z,87.30
2019-05-19T03:23:22.888Z,87.30
2019-05-19T03:24:22.877Z,87.20
2019-05-19T03:25:22.877Z,87.20
2019-05-19T03:26:22.858Z,87.41
2019-05-19T03:27:22.861Z,87.30
2019-05-19T03:28:22.858Z,87.10
2019-05-19T03:29:22.828Z,86.90
2019-05-19T03:30:22.819Z,87.10
2019-05-19T03:31:22.824Z,87.10
2019-05-19T03:32:22.802Z,87.41
2019-05-19T03:33:22.789Z,87.00
2019-05-19T03:34:22.785Z,87.00
2019-05-19T03:35:22.785Z,86.90
2019-05-19T03:36:22.751Z,86.80
2019-05-19T03:37:22.751Z,86.90
2019-05-19T03:38:22.743Z,86.94
2019-05-19T03:39:22.710Z,86.94
2019-05-19T03:40:22.754Z,86.94
2019-05-19T03:41:22.701Z,86.94
2019-05-19T03:42:22.708Z,86.94
2019-05-19T03:43:22.671Z,87.04
2019-05-19T03:44:22.725Z,87.14
2019-05-19T03:45:22.649Z,87.24
2019-05-19T03:46:22.668Z,87.45
2019-05-19T03:47:22.659Z,87.55
2019-05-19T03:48:22.618Z,87.45
2019-05-19T03:49:22.627Z,87.55
2019-05-19T03:50:22.628Z,87.24
2019-05-19T03:51:30.755Z,87.35
2019-05-19T03:52:23.574Z,87.35
2019-05-19T03:53:22.565Z,87.65
2019-05-19T03:54:22.555Z,87.55
2019-05-19T03:55:22.546Z,87.45
2019-05-19T03:56:22.538Z,87.14
2019-05-19T03:57:22.535Z,87.04
2019-05-19T03:58:22.528Z,86.83
2019-05-19T03:59:22.495Z,87.14
2019-05-19T04:00:22.503Z,87.24
2019-05-19T04:01:22.495Z,87.24
2019-05-19T04:02:22.463Z,87.24
2019-05-19T04:03:22.452Z,87.24
2019-05-19T04:04:22.477Z,87.24
2019-05-19T04:05:22.432Z,87.04
2019-05-19T04:06:22.432Z,87.14
2019-05-19T04:07:22.451Z,87.18
2019-05-19T04:08:22.411Z,87.18
2019-05-19T04:09:22.401Z,87.49
2019-05-19T04:10:22.381Z,87.59
2019-05-19T04:11:22.370Z,87.45
2019-05-19T04:12:22.378Z,87.55
2019-05-19T04:13:22.355Z,87.45
2019-05-19T04:14:22.339Z,87.38
2019-05-19T04:15:22.406Z,87.29
2019-05-19T04:16:22.316Z,87.29
2019-05-19T04:17:22.307Z,87.29
2019-05-19T04:18:22.323Z,87.14
2019-05-19T04:19:22.300Z,87.04
2019-05-19T04:20:22.275Z,86.94
2019-05-19T04:21:22.309Z,87.08
2019-05-19T04:22:22.255Z,87.14
2019-05-19T04:23:22.273Z,87.18
2019-05-19T04:24:22.243Z,87.14
2019-05-19T04:25:22.215Z,87.04
2019-05-19T04:26:22.223Z,87.04
2019-05-19T04:27:22.202Z,87.14
2019-05-19T04:28:22.186Z,87.14
2019-05-19T04:29:22.176Z,87.14
2019-05-19T04:30:22.192Z,87.04
2019-05-19T04:31:22.156Z,86.83
2019-05-19T04:32:22.153Z,86.88
2019-05-19T04:33:22.134Z,87.08
2019-05-19T04:34:22.138Z,87.29
2019-05-19T04:35:22.121Z,87.38
2019-05-19T04:36:22.107Z,87.18
2019-05-19T04:37:22.099Z,87.18
2019-05-19T04:38:22.080Z,87.29
2019-05-19T04:39:22.119Z,87.18
2019-05-19T04:40:22.057Z,87.08
2019-05-19T04:41:22.091Z,87.14
2019-05-19T04:42:22.039Z,87.14
2019-05-19T04:43:22.037Z,87.24
2019-05-19T04:44:22.096Z,87.04
2019-05-19T04:45:22.016Z,86.74
2019-05-19T04:46:22.016Z,86.94
2019-05-19T04:47:21.991Z,87.04
2019-05-19T04:48:22.004Z,86.83
2019-05-19T04:49:21.975Z,86.74
2019-05-19T04:50:21.944Z,86.94
2019-05-19T04:51:21.936Z,86.83
2019-05-19T04:52:21.934Z,86.74
2019-05-19T04:53:21.944Z,86.74
2019-05-19T04:54:21.938Z,86.53
2019-05-19T04:55:21.903Z,86.53
2019-05-19T04:56:21.883Z,86.63
2019-05-19T04:57:21.874Z,86.53
2019-05-19T04:58:21.870Z,86.53
2019-05-19T04:59:21.862Z,86.43
2019-05-19T05:00:21.843Z,86.33
2019-05-19T05:01:21.860Z,86.22
2019-05-19T05:02:21.839Z,86.19
2019-05-19T05:03:21.813Z,86.19
2019-05-19T05:04:21.822Z,86.08
2019-05-19T05:05:21.791Z,85.98
2019-05-19T05:06:21.824Z,85.78
2019-05-19T05:07:21.768Z,85.88
2019-05-19T05:08:29.661Z,85.78
2019-05-19T05:09:22.747Z,85.78
2019-05-19T05:10:21.740Z,85.68
2019-05-19T05:11:21.737Z,85.58
2019-05-19T05:12:21.726Z,85.58
2019-05-19T05:13:21.703Z,85.58
2019-05-19T05:14:21.696Z,85.58
2019-05-19T05:15:21.684Z,85.47
2019-05-19T05:16:21.680Z,85.47
2019-05-19T05:17:21.673Z,85.27
2019-05-19T05:18:21.654Z,85.58
2019-05-19T05:19:21.643Z,85.78
2019-05-19T05:20:21.624Z,85.78
2019-05-19T05:21:21.642Z,85.64
2019-05-19T05:22:22.502Z,85.64
2019-05-19T05:23:21.592Z,85.64
2019-05-19T05:24:21.581Z,85.43
2019-05-19T05:25:21.605Z,85.23
2019-05-19T05:26:21.585Z,85.43
2019-05-19T05:27:21.561Z,85.23
2019-05-19T05:28:21.541Z,85.33
2019-05-19T05:29:21.530Z,85.23
2019-05-19T05:30:21.532Z,84.62
2019-05-19T05:31:21.638Z,84.72
2019-05-19T05:32:21.489Z,84.92
2019-05-19T05:33:21.482Z,85.23
2019-05-19T05:34:21.488Z,85.43
2019-05-19T05:35:21.468Z,85.43
2019-05-19T05:36:21.447Z,85.64
2019-05-19T05:37:21.458Z,85.74
2019-05-19T05:38:21.428Z,85.53
2019-05-19T05:39:21.447Z,85.43
2019-05-19T05:40:21.407Z,85.33
2019-05-19T05:41:21.396Z,85.33
2019-05-19T05:42:21.395Z,85.33
2019-05-19T05:43:21.383Z,85.33
2019-05-19T05:44:21.365Z,85.29
2019-05-19T05:45:21.354Z,85.19
2019-05-19T05:46:21.382Z,85.09
2019-05-19T05:47:21.353Z,84.99
2019-05-19T05:48:21.322Z,85.09
2019-05-19T05:49:21.312Z,85.09
2019-05-19T05:50:21.293Z,84.99
2019-05-19T05:51:21.325Z,85.09
2019-05-19T05:52:21.284Z,85.29
2019-05-19T05:53:21.260Z,85.43
2019-05-19T05:54:21.261Z,85.64
2019-05-19T05:55:21.290Z,85.74
2019-05-19T05:56:21.239Z,85.74
2019-05-19T05:57:21.219Z,86.04
2019-05-19T05:58:21.209Z,86.15
2019-05-19T05:59:21.198Z,86.25
2019-05-19T06:00:21.199Z,86.25
2019-05-19T06:01:21.178Z,85.94
2019-05-19T06:02:21.168Z,86.15
2019-05-19T06:03:21.157Z,86.35
2019-05-19T06:04:21.198Z,86.25
2019-05-19T06:05:21.141Z,86.15
2019-05-19T06:06:21.156Z,86.15
2019-05-19T06:07:21.130Z,86.25
2019-05-19T06:08:21.126Z,86.21
2019-05-19T06:09:21.095Z,86.10
2019-05-19T06:10:21.085Z,86.00
2019-05-19T06:11:21.085Z,86.10
2019-05-19T06:12:21.078Z,86.21
2019-05-19T06:13:21.078Z,86.10
2019-05-19T06:14:21.067Z,86.00
2019-05-19T06:15:21.037Z,85.80
2019-05-19T06:16:21.043Z,85.80
2019-05-19T06:17:21.044Z,85.80
2019-05-19T06:18:21.000Z,85.70
2019-05-19T06:19:21.010Z,86.00
2019-05-19T06:20:20.995Z,85.90
2019-05-19T06:21:20.981Z,85.90
2019-05-19T06:22:20.965Z,85.80
2019-05-19T06:23:20.942Z,85.80
2019-05-19T06:24:20.934Z,85.76
2019-05-19T06:25:21.010Z,85.76
2019-05-19T06:26:20.919Z,86.07
2019-05-19T06:27:20.900Z,86.07
2019-05-19T06:28:20.891Z,85.96
2019-05-19T06:29:20.887Z,85.86
2019-05-19T06:30:20.876Z,85.96
2019-05-19T06:31:20.878Z,86.27
2019-05-19T06:32:20.847Z,86.27
2019-05-19T06:33:20.836Z,86.07
2019-05-19T06:34:20.827Z,86.07
2019-05-19T06:35:20.815Z,85.96
2019-05-19T06:36:20.835Z,85.96
2019-05-19T06:37:20.798Z,86.16
2019-05-19T06:38:20.775Z,86.27
2019-05-19T06:39:20.773Z,86.37
2019-05-19T06:40:20.786Z,86.47
2019-05-19T06:41:20.743Z,86.57
2019-05-19T06:42:20.753Z,86.88
2019-05-19T06:43:20.765Z,86.68
2019-05-19T06:44:20.735Z,86.57
2019-05-19T06:45:20.704Z,86.57
2019-05-19T06:46:20.702Z,86.27
2019-05-19T06:47:20.710Z,86.13
2019-05-19T06:48:20.671Z,86.22
2019-05-19T06:49:20.673Z,85.96
2019-05-19T06:50:20.649Z,86.47
2019-05-19T06:51:20.640Z,86.68
2019-05-19T06:52:20.652Z,86.68
2019-05-19T06:53:20.636Z,86.88
2019-05-19T06:54:20.631Z,86.98
2019-05-19T06:55:20.602Z,86.88
2019-05-19T06:56:20.618Z,86.88
2019-05-19T06:57:20.609Z,86.63
2019-05-19T06:58:20.577Z,86.33
2019-05-19T06:59:20.567Z,86.43
2019-05-19T07:00:20.536Z,86.22
2019-05-19T07:01:20.536Z,86.43
2019-05-19T07:02:20.648Z,86.22
2019-05-19T07:03:20.586Z,86.22
2019-05-19T07:04:20.508Z,86.02
2019-05-19T07:05:20.485Z,85.92
2019-05-19T07:06:20.476Z,85.92
2019-05-19T07:07:20.474Z,85.68
2019-05-19T07:08:20.454Z,85.38
2019-05-19T07:09:20.444Z,85.27
2019-05-19T07:10:20.433Z,85.27
2019-05-19T07:11:20.421Z,85.27
2019-05-19T07:12:20.439Z,85.27
2019-05-19T07:13:20.413Z,85.27
2019-05-19T07:14:20.391Z,85.27
2019-05-19T07:15:20.383Z,85.38
2019-05-19T07:16:20.377Z,85.47
2019-05-19T07:17:20.399Z,85.07
2019-05-19T07:18:20.352Z,84.83
2019-05-19T07:19:20.360Z,84.32
2019-05-19T07:20:20.368Z,84.01
2019-05-19T07:21:20.309Z,83.67
2019-05-19T07:22:20.309Z,83.26
2019-05-19T07:23:27.789Z,83.06
2019-05-19T07:24:21.296Z,82.92
2019-05-19T07:25:20.267Z,82.72
2019-05-19T07:26:20.262Z,82.62
2019-05-19T07:27:20.269Z,82.21
2019-05-19T07:28:20.237Z,82.11
2019-05-19T07:29:20.225Z,82.07
2019-05-19T07:30:20.233Z,81.77
2019-05-19T07:31:20.212Z,81.46
2019-05-19T07:32:20.237Z,81.06
2019-05-19T07:33:20.192Z,80.86
2019-05-19T07:34:20.176Z,81.16
2019-05-19T07:35:20.174Z,81.12
2019-05-19T07:36:20.166Z,80.92
2019-05-19T07:37:20.153Z,80.72
2019-05-19T07:38:20.131Z,80.41
2019-05-19T07:39:20.183Z,80.21
2019-05-19T07:40:20.112Z,80.11
2019-05-19T07:41:20.112Z,79.87
2019-05-19T07:42:20.094Z,79.77
2019-05-19T07:43:20.108Z,79.36
2019-05-19T07:44:20.083Z,79.26
2019-05-19T07:45:20.061Z,79.16
2019-05-19T07:46:20.042Z,79.57
2019-05-19T07:47:20.031Z,79.06
2019-05-19T07:48:20.032Z,79.36
2019-05-19T07:49:20.009Z,78.86
2019-05-19T07:50:20.015Z,78.96
2019-05-19T07:51:19.998Z,78.92
2019-05-19T07:52:19.978Z,78.72
2019-05-19T07:53:19.979Z,78.31
2019-05-19T07:54:19.957Z,78.58
2019-05-19T07:55:19.952Z,77.97
2019-05-19T07:56:19.967Z,77.37
2019-05-19T07:57:19.939Z,77.43
2019-05-19T07:58:20.072Z,76.22
2019-05-19T07:59:19.905Z,76.42
2019-05-19T08:00:19.910Z,76.08
2019-05-19T08:01:19.889Z,75.04
2019-05-19T08:02:19.874Z,73.99
2019-05-19T08:03:19.876Z,73.65
2019-05-19T08:04:19.864Z,73.35
2019-05-19T08:05:19.863Z,72.85
2019-05-19T08:06:19.833Z,71.91
2019-05-19T08:07:19.873Z,72.75
2019-05-19T08:08:19.814Z,72.44
2019-05-19T08:09:19.803Z,72.98
2019-05-19T08:10:19.809Z,73.79
2019-05-19T08:11:19.802Z,74.53
2019-05-19T08:12:19.791Z,74.13
2019-05-19T08:13:19.771Z,74.77
2019-05-19T08:14:19.749Z,75.17
2019-05-19T08:15:19.739Z,74.93
2019-05-19T08:16:19.740Z,74.84
2019-05-19T08:17:19.720Z,74.63
2019-05-19T08:18:19.704Z,74.77
2019-05-19T08:19:19.690Z,74.73
2019-05-19T08:20:19.689Z,74.09
2019-05-19T08:21:19.692Z,73.65
2019-05-19T08:22:19.699Z,73.49
2019-05-19T08:23:19.681Z,74.13
2019-05-19T08:24:19.639Z,74.53
2019-05-19T08:25:19.651Z,74.84
2019-05-19T08:26:19.641Z,75.04
2019-05-19T08:27:19.611Z,75.34
2019-05-19T08:28:19.596Z,75.04
2019-05-19T08:29:19.597Z,75.13
2019-05-19T08:30:19.576Z,75.00
2019-05-19T08:31:19.573Z,74.49
2019-05-19T08:32:19.557Z,74.40
2019-05-19T08:33:19.557Z,74.60
2019-05-19T08:34:19.545Z,74.69
2019-05-19T08:35:19.524Z,74.60
2019-05-19T08:36:19.513Z,74.40
2019-05-19T08:37:19.527Z,74.29
2019-05-19T08:38:19.503Z,74.56
2019-05-19T08:39:19.483Z,74.49
2019-05-19T08:40:19.489Z,73.96
2019-05-19T08:41:19.472Z,73.42
2019-05-19T08:42:19.442Z,72.71
2019-05-19T08:43:19.452Z,73.25
2019-05-19T08:44:19.440Z,73.42
2019-05-19T08:45:19.411Z,73.42
2019-05-19T08:46:19.422Z,73.08
2019-05-19T08:47:19.411Z,72.47
2019-05-19T08:48:19.390Z,72.27
2019-05-19T08:49:19.380Z,72.17
2019-05-19T08:50:19.370Z,72.07
2019-05-19T08:51:19.379Z,71.94
2019-05-19T08:52:19.348Z,71.73
2019-05-19T08:53:19.346Z,71.44
2019-05-19T08:54:19.341Z,71.84
2019-05-19T08:55:19.332Z,71.97
2019-05-19T08:56:19.319Z,71.84
2019-05-19T08:57:19.297Z,71.84
2019-05-19T08:58:19.278Z,71.64
2019-05-19T08:59:19.267Z,71.44
2019-05-19T09:00:19.412Z,71.64
2019-05-19T09:01:19.256Z,71.64
2019-05-19T09:02:19.249Z,71.53
2019-05-19T09:03:19.228Z,71.64
2019-05-19T09:04:19.218Z,71.94
2019-05-19T09:05:19.206Z,71.73
2019-05-19T09:06:19.196Z,71.20
2019-05-19T09:07:19.195Z,71.00
2019-05-19T09:08:19.193Z,70.66
2019-05-19T09:09:19.174Z,70.09
2019-05-19T09:10:19.155Z,70.59
2019-05-19T09:11:19.153Z,70.46
2019-05-19T09:12:19.134Z,70.36
2019-05-19T09:13:19.143Z,70.03
2019-05-19T09:14:19.111Z,69.52
2019-05-19T09:15:19.103Z,69.32
2019-05-19T09:16:19.103Z,68.88
2019-05-19T09:17:19.090Z,68.59
2019-05-19T09:18:19.062Z,68.28
2019-05-19T09:19:19.052Z,68.28
2019-05-19T09:20:19.041Z,68.62
2019-05-19T09:21:19.030Z,69.65
2019-05-19T09:22:19.040Z,70.39
2019-05-19T09:23:19.013Z,70.26
2019-05-19T09:24:30.214Z,69.96
2019-05-19T09:25:19.989Z,69.42
2019-05-19T09:26:18.981Z,69.12
2019-05-19T09:27:18.989Z,68.91
2019-05-19T09:28:18.958Z,68.59
2019-05-19T09:29:18.948Z,68.38
2019-05-19T09:30:18.938Z,68.38
2019-05-19T09:31:18.928Z,68.38
2019-05-19T09:32:18.928Z,68.78
2019-05-19T09:33:18.917Z,68.71
2019-05-19T09:34:18.898Z,68.62
2019-05-19T09:35:18.897Z,68.91
2019-05-19T09:36:18.876Z,69.35
2019-05-19T09:37:18.869Z,70.19
2019-05-19T09:38:18.869Z,71.00
2019-05-19T09:39:18.855Z,71.10
2019-05-19T09:40:18.836Z,70.26
2019-05-19T09:41:18.845Z,69.62
2019-05-19T09:42:18.830Z,69.45
2019-05-19T09:43:18.814Z,69.82
2019-05-19T09:44:18.806Z,69.62
2019-05-19T09:45:18.782Z,69.52
2019-05-19T09:46:18.765Z,69.85
2019-05-19T09:47:18.766Z,69.56
2019-05-19T09:48:18.764Z,69.82
2019-05-19T09:49:18.736Z,69.29
2019-05-19T09:50:18.739Z,68.88
2019-05-19T09:51:18.722Z,68.59
2019-05-19T09:52:18.703Z,68.25
2019-05-19T09:53:18.693Z,67.94
2019-05-19T09:54:18.681Z,67.35
2019-05-19T09:55:18.671Z,67.44
2019-05-19T09:56:18.670Z,67.55
2019-05-19T09:57:18.661Z,67.44
2019-05-19T09:58:20.074Z,68.05
2019-05-19T09:59:18.653Z,67.94
2019-05-19T10:00:18.690Z,67.65
2019-05-19T10:01:18.672Z,68.15
2019-05-19T10:02:18.615Z,68.05
2019-05-19T10:03:19.756Z,67.65
2019-05-19T10:04:18.589Z,68.88
2019-05-19T10:05:18.590Z,69.18
2019-05-19T10:06:18.666Z,68.91
2019-05-19T10:07:18.618Z,69.42
2019-05-19T10:08:18.548Z,69.62
2019-05-19T10:09:18.527Z,69.52
2019-05-19T10:10:18.557Z,69.59
2019-05-19T10:11:18.546Z,69.09
2019-05-19T10:12:18.519Z,69.38
2019-05-19T10:13:18.496Z,69.32
2019-05-19T10:14:18.543Z,69.49
2019-05-19T10:15:18.485Z,69.22
2019-05-19T10:16:18.445Z,70.16
2019-05-19T10:17:18.535Z,70.43
2019-05-19T10:18:18.445Z,70.19
2019-05-19T10:19:18.414Z,69.29
2019-05-19T10:20:18.474Z,68.45
2019-05-19T10:21:18.474Z,68.35
2019-05-19T10:22:18.403Z,68.62
2019-05-19T10:23:18.452Z,68.35
2019-05-19T10:24:18.424Z,68.35
2019-05-19T10:25:22.258Z,68.21
2019-05-19T10:26:18.433Z,67.28
2019-05-19T10:27:21.403Z,66.78
2019-05-19T10:28:18.397Z,66.24
2019-05-19T10:29:18.344Z,66.05
2019-05-19T10:30:18.353Z,66.05
2019-05-19T10:31:18.292Z,65.94
2019-05-19T10:32:18.319Z,66.01
2019-05-19T10:33:18.272Z,65.51
2019-05-19T10:34:18.252Z,65.97
2019-05-19T10:35:18.271Z,66.78
2019-05-19T10:36:18.233Z,66.14
2019-05-19T10:37:18.246Z,65.77
2019-05-19T10:38:18.219Z,66.17
2019-05-19T10:39:18.199Z,66.28
2019-05-19T10:40:18.191Z,66.98
2019-05-19T10:41:18.190Z,66.58
2019-05-19T10:42:18.168Z,66.85
2019-05-19T10:43:18.167Z,66.75
2019-05-19T10:44:18.155Z,66.31
2019-05-19T10:45:18.141Z,66.01
2019-05-19T10:46:18.139Z,65.61
2019-05-19T10:47:18.116Z,65.71
2019-05-19T10:48:18.105Z,66.01
2019-05-19T10:49:18.095Z,65.71
2019-05-19T10:50:18.095Z,65.18
2019-05-19T10:51:18.095Z,65.41
2019-05-19T10:52:18.086Z,65.31
2019-05-19T10:53:18.058Z,65.71
2019-05-19T10:54:18.067Z,66.14
2019-05-19T10:55:18.044Z,66.58
2019-05-19T10:56:19.211Z,66.64
2019-05-19T10:57:18.013Z,66.44
2019-05-19T10:58:17.998Z,66.44
2019-05-19T10:59:18.016Z,66.91
2019-05-19T11:00:18.018Z,67.61
2019-05-19T11:01:17.979Z,67.31
2019-05-19T11:02:17.952Z,68.12
2019-05-19T11:03:17.963Z,68.45
2019-05-19T11:04:17.932Z,68.41
2019-05-19T11:05:17.932Z,68.02
2019-05-19T11:06:17.928Z,68.15
2019-05-19T11:07:17.901Z,68.85
2019-05-19T11:08:17.903Z,69.09
2019-05-19T11:09:17.891Z,69.59
2019-05-19T11:10:17.871Z,69.06
2019-05-19T11:11:17.868Z,68.65
2019-05-19T11:12:17.871Z,68.75
2019-05-19T11:13:18.427Z,68.65
2019-05-19T11:14:17.869Z,68.95
2019-05-19T11:15:17.870Z,68.55
2019-05-19T11:16:17.810Z,68.32
2019-05-19T11:17:17.808Z,68.12
2019-05-19T11:18:17.789Z,67.91
2019-05-19T11:19:17.779Z,68.02
2019-05-19T11:20:17.769Z,68.08
2019-05-19T11:21:17.767Z,67.28
2019-05-19T11:22:17.748Z,67.48
2019-05-19T11:23:17.736Z,67.28
2019-05-19T11:24:17.746Z,67.48
2019-05-19T11:25:31.570Z,67.25
2019-05-19T11:26:18.739Z,67.08
2019-05-19T11:27:17.707Z,67.35
2019-05-19T11:28:17.675Z,66.85
2019-05-19T11:29:17.729Z,67.18
2019-05-19T11:30:17.665Z,67.82
2019-05-19T11:31:17.686Z,67.98
2019-05-19T11:32:17.637Z,68.08
2019-05-19T11:33:17.630Z,67.98
2019-05-19T11:34:17.677Z,67.65
2019-05-19T11:35:17.605Z,67.38
2019-05-19T11:36:17.602Z,67.55
2019-05-19T11:37:17.602Z,67.35
2019-05-19T11:38:17.572Z,68.05
2019-05-19T11:39:17.562Z,67.75
2019-05-19T11:40:17.558Z,67.02
2019-05-19T11:41:17.561Z,66.75
2019-05-19T11:42:17.578Z,67.55
2019-05-19T11:43:17.520Z,67.45
2019-05-19T11:44:17.512Z,67.14
2019-05-19T11:45:17.510Z,67.22
2019-05-19T11:46:17.500Z,67.11
2019-05-19T11:47:17.489Z,66.82
2019-05-19T11:48:17.480Z,65.98
2019-05-19T11:49:17.465Z,66.31
2019-05-19T11:50:17.471Z,66.31
2019-05-19T11:51:17.438Z,66.52
2019-05-19T11:52:17.473Z,66.58
2019-05-19T11:53:17.427Z,66.38
2019-05-19T11:54:17.411Z,66.28
2019-05-19T11:55:17.396Z,65.98
2019-05-19T11:56:17.377Z,65.38
2019-05-19T11:57:17.385Z,65.58
2019-05-19T11:58:17.377Z,66.08
2019-05-19T11:59:17.359Z,66.78
2019-05-19T12:00:17.350Z,66.38
2019-05-19T12:01:17.336Z,65.98
2019-05-19T12:02:17.316Z,65.98
2019-05-19T12:03:17.305Z,66.68
2019-05-19T12:04:17.306Z,66.52
2019-05-19T12:05:17.284Z,66.61
2019-05-19T12:06:17.296Z,67.55
2019-05-19T12:07:17.264Z,67.65
2019-05-19T12:08:17.256Z,67.25
2019-05-19T12:09:17.276Z,67.25
2019-05-19T12:10:17.234Z,67.75
2019-05-19T12:11:17.234Z,67.75
2019-05-19T12:12:17.217Z,67.55
2019-05-19T12:13:17.221Z,67.75
2019-05-19T12:14:17.182Z,67.98
2019-05-19T12:15:17.180Z,68.49
2019-05-19T12:16:17.183Z,68.79
2019-05-19T12:17:17.154Z,68.79
2019-05-19T12:18:17.163Z,68.55
2019-05-19T12:19:17.132Z,68.35
2019-05-19T12:20:17.133Z,67.61
2019-05-19T12:21:17.110Z,68.12
2019-05-19T12:22:17.100Z,68.05
2019-05-19T12:23:17.101Z,68.15
2019-05-19T12:24:17.102Z,68.65
2019-05-19T12:25:17.070Z,68.45
2019-05-19T12:26:23.369Z,68.25
2019-05-19T12:27:18.049Z,68.55
2019-05-19T12:28:17.039Z,68.35
2019-05-19T12:29:17.038Z,68.55
2019-05-19T12:30:17.019Z,67.95
2019-05-19T12:31:17.010Z,67.95
2019-05-19T12:32:17.007Z,68.88
2019-05-19T12:33:16.987Z,68.99
2019-05-19T12:34:16.976Z,69.39
2019-05-19T12:35:16.987Z,68.79
2019-05-19T12:36:17.013Z,69.19
2019-05-19T12:37:16.966Z,69.39
2019-05-19T12:38:16.938Z,68.68
2019-05-19T12:39:16.926Z,69.29
2019-05-19T12:40:16.938Z,68.99
2019-05-19T12:41:17.143Z,68.65
2019-05-19T12:42:16.936Z,68.65
2019-05-19T12:43:16.884Z,68.76
2019-05-19T12:44:16.875Z,68.72
2019-05-19T12:45:16.873Z,67.72
2019-05-19T12:46:17.003Z,67.82
2019-05-19T12:47:16.835Z,67.92
2019-05-19T12:48:16.827Z,67.72
2019-05-19T12:49:16.830Z,68.12
2019-05-19T12:50:16.804Z,67.95
2019-05-19T12:51:18.748Z,68.25
2019-05-19T12:52:16.782Z,68.15
2019-05-19T12:53:16.779Z,68.25